sensor_id;sensor_type;location;lat;lon;timestamp;P1;durP1;ratioP1;P2;durP2;ratioP2
20381;SDS011;10350;51.280;12.400;2023-01-29T00:00:06;5.70;;;3.80;;
20381;SDS011;10350;51.280;12.400;2023-01-29T00:04:59;4.10;;;3.53;;
20381;SDS011;10350;51.280;12.400;2023-01-29T00:07:25;5.30;;;3.83;;
20381;SDS011;10350;51.280;12.400;2023-01-29T00:09:51;4.55;;;3.63;;
20381;SDS011;10350;51.280;12.400;2023-01-29T00:12:17;4.93;;;3.75;;
20381;SDS011;10350;51.280;12.400;2023-01-29T00:14:43;5.93;;;3.45;;
20381;SDS011;10350;51.280;12.400;2023-01-29T00:17:09;6.63;;;3.65;;
20381;SDS011;10350;51.280;12.400;2023-01-29T00:19:35;7.65;;;3.58;;
20381;SDS011;10350;51.280;12.400;2023-01-29T00:22:01;4.30;;;3.50;;
20381;SDS011;10350;51.280;12.400;2023-01-29T00:24:27;5.00;;;3.53;;
20381;SDS011;10350;51.280;12.400;2023-01-29T00:26:52;4.95;;;3.70;;
20381;SDS011;10350;51.280;12.400;2023-01-29T00:29:18;5.63;;;4.07;;
20381;SDS011;10350;51.280;12.400;2023-01-29T00:31:45;6.22;;;3.95;;
20381;SDS011;10350;51.280;12.400;2023-01-29T00:34:11;5.35;;;3.83;;
20381;SDS011;10350;51.280;12.400;2023-01-29T00:36:37;6.72;;;3.83;;
20381;SDS011;10350;51.280;12.400;2023-01-29T00:39:03;4.75;;;3.72;;
20381;SDS011;10350;51.280;12.400;2023-01-29T00:41:34;6.70;;;3.60;;
20381;SDS011;10350;51.280;12.400;2023-01-29T00:44:19;6.20;;;3.60;;
20381;SDS011;10350;51.280;12.400;2023-01-29T00:47:03;5.53;;;4.75;;
20381;SDS011;10350;51.280;12.400;2023-01-29T00:49:49;4.22;;;3.35;;
20381;SDS011;10350;51.280;12.400;2023-01-29T00:52:15;7.13;;;4.40;;
20381;SDS011;10350;51.280;12.400;2023-01-29T00:54:50;5.35;;;4.05;;
20381;SDS011;10350;51.280;12.400;2023-01-29T00:57:16;5.90;;;4.18;;
20381;SDS011;10350;51.280;12.400;2023-01-29T00:59:42;4.60;;;3.95;;
20381;SDS011;10350;51.280;12.400;2023-01-29T01:02:08;5.97;;;4.35;;
20381;SDS011;10350;51.280;12.400;2023-01-29T01:04:53;6.47;;;4.25;;
20381;SDS011;10350;51.280;12.400;2023-01-29T01:07:19;9.02;;;4.40;;
20381;SDS011;10350;51.280;12.400;2023-01-29T01:09:45;8.30;;;4.50;;
20381;SDS011;10350;51.280;12.400;2023-01-29T01:12:29;5.18;;;3.88;;
20381;SDS011;10350;51.280;12.400;2023-01-29T01:14:56;8.52;;;3.78;;
20381;SDS011;10350;51.280;12.400;2023-01-29T01:17:22;6.75;;;4.20;;
20381;SDS011;10350;51.280;12.400;2023-01-29T01:19:48;6.88;;;4.00;;
20381;SDS011;10350;51.280;12.400;2023-01-29T01:22:14;6.85;;;4.28;;
20381;SDS011;10350;51.280;12.400;2023-01-29T01:24:40;6.80;;;3.95;;
20381;SDS011;10350;51.280;12.400;2023-01-29T01:27:06;6.28;;;3.90;;
20381;SDS011;10350;51.280;12.400;2023-01-29T01:29:31;6.63;;;4.05;;
20381;SDS011;10350;51.280;12.400;2023-01-29T01:31:57;9.95;;;4.72;;
20381;SDS011;10350;51.280;12.400;2023-01-29T01:34:23;8.88;;;4.78;;
20381;SDS011;10350;51.280;12.400;2023-01-29T01:36:51;6.07;;;4.17;;
20381;SDS011;10350;51.280;12.400;2023-01-29T01:39:17;8.70;;;5.32;;
20381;SDS011;10350;51.280;12.400;2023-01-29T01:41:43;11.32;;;4.80;;
20381;SDS011;10350;51.280;12.400;2023-01-29T01:46:54;8.77;;;5.00;;
20381;SDS011;10350;51.280;12.400;2023-01-29T01:49:20;8.80;;;4.78;;
20381;SDS011;10350;51.280;12.400;2023-01-29T01:51:48;5.55;;;4.07;;
20381;SDS011;10350;51.280;12.400;2023-01-29T01:56:49;8.88;;;5.45;;
20381;SDS011;10350;51.280;12.400;2023-01-29T01:59:19;8.45;;;5.60;;
20381;SDS011;10350;51.280;12.400;2023-01-29T02:01:47;7.78;;;5.32;;
20381;SDS011;10350;51.280;12.400;2023-01-29T02:04:19;10.43;;;5.32;;
20381;SDS011;10350;51.280;12.400;2023-01-29T02:07:05;8.57;;;5.78;;
20381;SDS011;10350;51.280;12.400;2023-01-29T02:09:51;10.38;;;6.22;;
20381;SDS011;10350;51.280;12.400;2023-01-29T02:12:18;9.52;;;6.28;;
20381;SDS011;10350;51.280;12.400;2023-01-29T02:14:44;11.90;;;6.32;;
20381;SDS011;10350;51.280;12.400;2023-01-29T02:17:14;10.10;;;6.88;;
20381;SDS011;10350;51.280;12.400;2023-01-29T02:22:28;10.93;;;6.95;;
20381;SDS011;10350;51.280;12.400;2023-01-29T02:30:27;14.75;;;7.68;;
20381;SDS011;10350;51.280;12.400;2023-01-29T02:32:59;12.13;;;6.40;;
20381;SDS011;10350;51.280;12.400;2023-01-29T02:35:33;13.23;;;7.18;;
20381;SDS011;10350;51.280;12.400;2023-01-29T02:40:43;13.93;;;7.30;;
20381;SDS011;10350;51.280;12.400;2023-01-29T02:48:19;11.02;;;6.07;;
20381;SDS011;10350;51.280;12.400;2023-01-29T02:50:55;14.50;;;7.18;;
20381;SDS011;10350;51.280;12.400;2023-01-29T02:53:36;13.25;;;7.05;;
20381;SDS011;10350;51.280;12.400;2023-01-29T02:56:07;15.52;;;7.88;;
20381;SDS011;10350;51.280;12.400;2023-01-29T03:01:05;15.52;;;8.02;;
20381;SDS011;10350;51.280;12.400;2023-01-29T03:03:37;13.30;;;7.03;;
20381;SDS011;10350;51.280;12.400;2023-01-29T03:06:06;10.63;;;6.60;;
20381;SDS011;10350;51.280;12.400;2023-01-29T03:08:37;15.52;;;8.10;;
20381;SDS011;10350;51.280;12.400;2023-01-29T03:11:07;14.50;;;7.90;;
20381;SDS011;10350;51.280;12.400;2023-01-29T03:13:40;12.93;;;7.43;;
20381;SDS011;10350;51.280;12.400;2023-01-29T03:16:09;13.77;;;7.68;;
20381;SDS011;10350;51.280;12.400;2023-01-29T03:18:49;15.52;;;7.85;;
20381;SDS011;10350;51.280;12.400;2023-01-29T03:21:18;14.55;;;6.93;;
20381;SDS011;10350;51.280;12.400;2023-01-29T03:24:04;13.07;;;7.83;;
20381;SDS011;10350;51.280;12.400;2023-01-29T03:26:50;14.40;;;7.97;;
20381;SDS011;10350;51.280;12.400;2023-01-29T03:29:35;13.40;;;7.22;;
20381;SDS011;10350;51.280;12.400;2023-01-29T03:32:21;12.35;;;7.45;;
20381;SDS011;10350;51.280;12.400;2023-01-29T03:34:49;14.13;;;7.90;;
20381;SDS011;10350;51.280;12.400;2023-01-29T03:37:19;13.27;;;7.72;;
20381;SDS011;10350;51.280;12.400;2023-01-29T03:39:46;12.68;;;7.72;;
20381;SDS011;10350;51.280;12.400;2023-01-29T03:45:00;14.38;;;7.90;;
20381;SDS011;10350;51.280;12.400;2023-01-29T03:53:00;14.18;;;8.07;;
20381;SDS011;10350;51.280;12.400;2023-01-29T03:55:34;14.90;;;8.30;;
20381;SDS011;10350;51.280;12.400;2023-01-29T03:58:05;15.70;;;7.18;;
20381;SDS011;10350;51.280;12.400;2023-01-29T04:00:36;16.25;;;8.18;;
20381;SDS011;10350;51.280;12.400;2023-01-29T04:03:15;11.60;;;7.43;;
20381;SDS011;10350;51.280;12.400;2023-01-29T04:05:44;15.20;;;8.10;;
20381;SDS011;10350;51.280;12.400;2023-01-29T04:08:14;16.20;;;9.02;;
20381;SDS011;10350;51.280;12.400;2023-01-29T04:10:41;13.13;;;7.72;;
20381;SDS011;10350;51.280;12.400;2023-01-29T04:13:09;17.80;;;7.93;;
20381;SDS011;10350;51.280;12.400;2023-01-29T04:15:46;15.02;;;7.78;;
20381;SDS011;10350;51.280;12.400;2023-01-29T04:18:13;19.00;;;8.63;;
20381;SDS011;10350;51.280;12.400;2023-01-29T04:20:40;13.43;;;7.78;;
20381;SDS011;10350;51.280;12.400;2023-01-29T04:23:06;16.42;;;7.32;;
20381;SDS011;10350;51.280;12.400;2023-01-29T04:25:39;15.57;;;8.20;;
20381;SDS011;10350;51.280;12.400;2023-01-29T04:28:14;13.35;;;7.47;;
20381;SDS011;10350;51.280;12.400;2023-01-29T04:31:01;13.02;;;7.22;;
20381;SDS011;10350;51.280;12.400;2023-01-29T04:33:33;12.82;;;7.45;;
20381;SDS011;10350;51.280;12.400;2023-01-29T04:36:19;13.13;;;7.60;;
20381;SDS011;10350;51.280;12.400;2023-01-29T04:38:55;16.03;;;9.13;;
20381;SDS011;10350;51.280;12.400;2023-01-29T04:41:36;17.65;;;7.93;;
20381;SDS011;10350;51.280;12.400;2023-01-29T04:44:08;10.48;;;6.93;;
20381;SDS011;10350;51.280;12.400;2023-01-29T04:46:41;14.40;;;7.35;;
20381;SDS011;10350;51.280;12.400;2023-01-29T04:49:14;13.40;;;7.70;;
20381;SDS011;10350;51.280;12.400;2023-01-29T04:51:43;12.82;;;7.55;;
20381;SDS011;10350;51.280;12.400;2023-01-29T04:56:50;17.60;;;8.55;;
20381;SDS011;10350;51.280;12.400;2023-01-29T04:59:18;16.17;;;7.82;;
20381;SDS011;10350;51.280;12.400;2023-01-29T05:01:46;16.27;;;7.70;;
20381;SDS011;10350;51.280;12.400;2023-01-29T05:04:13;13.98;;;7.70;;
20381;SDS011;10350;51.280;12.400;2023-01-29T05:06:40;13.40;;;7.78;;
20381;SDS011;10350;51.280;12.400;2023-01-29T05:09:08;12.88;;;7.80;;
20381;SDS011;10350;51.280;12.400;2023-01-29T05:11:34;14.18;;;7.30;;
20381;SDS011;10350;51.280;12.400;2023-01-29T05:14:01;13.88;;;8.38;;
20381;SDS011;10350;51.280;12.400;2023-01-29T05:16:32;13.45;;;7.22;;
20381;SDS011;10350;51.280;12.400;2023-01-29T05:19:09;13.18;;;7.35;;
20381;SDS011;10350;51.280;12.400;2023-01-29T05:21:36;12.97;;;7.03;;
20381;SDS011;10350;51.280;12.400;2023-01-29T05:24:13;13.98;;;7.68;;
20381;SDS011;10350;51.280;12.400;2023-01-29T05:26:41;14.00;;;7.65;;
20381;SDS011;10350;51.280;12.400;2023-01-29T05:29:26;14.90;;;8.15;;
20381;SDS011;10350;51.280;12.400;2023-01-29T05:31:52;12.48;;;6.90;;
20381;SDS011;10350;51.280;12.400;2023-01-29T05:34:18;13.82;;;7.78;;
20381;SDS011;10350;51.280;12.400;2023-01-29T05:36:44;14.60;;;8.10;;
20381;SDS011;10350;51.280;12.400;2023-01-29T05:39:10;12.95;;;7.78;;
20381;SDS011;10350;51.280;12.400;2023-01-29T05:41:36;16.25;;;7.85;;
20381;SDS011;10350;51.280;12.400;2023-01-29T05:44:01;15.75;;;7.95;;
20381;SDS011;10350;51.280;12.400;2023-01-29T05:46:27;13.05;;;7.45;;
20381;SDS011;10350;51.280;12.400;2023-01-29T05:48:53;14.65;;;7.60;;
20381;SDS011;10350;51.280;12.400;2023-01-29T05:51:19;13.80;;;7.22;;
20381;SDS011;10350;51.280;12.400;2023-01-29T05:53:45;13.95;;;7.72;;
20381;SDS011;10350;51.280;12.400;2023-01-29T05:56:11;14.63;;;7.70;;
20381;SDS011;10350;51.280;12.400;2023-01-29T05:58:37;13.02;;;7.40;;
20381;SDS011;10350;51.280;12.400;2023-01-29T06:01:10;15.40;;;7.80;;
20381;SDS011;10350;51.280;12.400;2023-01-29T06:03:37;14.38;;;7.80;;
20381;SDS011;10350;51.280;12.400;2023-01-29T06:06:02;11.75;;;6.75;;
20381;SDS011;10350;51.280;12.400;2023-01-29T06:08:28;12.07;;;7.45;;
20381;SDS011;10350;51.280;12.400;2023-01-29T06:10:54;13.95;;;7.97;;
20381;SDS011;10350;51.280;12.400;2023-01-29T06:13:20;13.10;;;7.60;;
20381;SDS011;10350;51.280;12.400;2023-01-29T06:15:46;15.23;;;7.90;;
20381;SDS011;10350;51.280;12.400;2023-01-29T06:18:12;14.20;;;7.85;;
20381;SDS011;10350;51.280;12.400;2023-01-29T06:20:38;13.00;;;7.43;;
20381;SDS011;10350;51.280;12.400;2023-01-29T06:23:04;11.48;;;7.07;;
20381;SDS011;10350;51.280;12.400;2023-01-29T06:25:30;12.43;;;8.02;;
20381;SDS011;10350;51.280;12.400;2023-01-29T06:27:56;15.13;;;7.55;;
20381;SDS011;10350;51.280;12.400;2023-01-29T06:30:22;19.48;;;8.40;;
20381;SDS011;10350;51.280;12.400;2023-01-29T06:32:48;13.98;;;7.07;;
20381;SDS011;10350;51.280;12.400;2023-01-29T06:35:14;13.32;;;7.97;;
20381;SDS011;10350;51.280;12.400;2023-01-29T06:37:40;14.38;;;7.88;;
20381;SDS011;10350;51.280;12.400;2023-01-29T06:40:06;12.35;;;7.45;;
20381;SDS011;10350;51.280;12.400;2023-01-29T06:42:35;14.63;;;7.35;;
20381;SDS011;10350;51.280;12.400;2023-01-29T06:45:01;12.77;;;7.45;;
20381;SDS011;10350;51.280;12.400;2023-01-29T06:47:27;14.10;;;7.70;;
20381;SDS011;10350;51.280;12.400;2023-01-29T06:49:53;12.00;;;7.13;;
20381;SDS011;10350;51.280;12.400;2023-01-29T06:52:19;10.18;;;6.85;;
20381;SDS011;10350;51.280;12.400;2023-01-29T06:54:45;13.68;;;8.43;;
20381;SDS011;10350;51.280;12.400;2023-01-29T06:57:11;15.75;;;8.30;;
20381;SDS011;10350;51.280;12.400;2023-01-29T06:59:37;13.32;;;7.53;;
20381;SDS011;10350;51.280;12.400;2023-01-29T07:02:03;13.13;;;7.47;;
20381;SDS011;10350;51.280;12.400;2023-01-29T07:04:29;11.95;;;7.65;;
20381;SDS011;10350;51.280;12.400;2023-01-29T07:06:55;12.60;;;7.28;;
20381;SDS011;10350;51.280;12.400;2023-01-29T07:09:20;13.32;;;7.85;;
20381;SDS011;10350;51.280;12.400;2023-01-29T07:11:46;13.63;;;7.63;;
20381;SDS011;10350;51.280;12.400;2023-01-29T07:14:12;14.98;;;8.20;;
20381;SDS011;10350;51.280;12.400;2023-01-29T07:16:38;12.15;;;7.70;;
20381;SDS011;10350;51.280;12.400;2023-01-29T07:19:04;13.68;;;7.70;;
20381;SDS011;10350;51.280;12.400;2023-01-29T07:21:30;12.98;;;8.10;;
20381;SDS011;10350;51.280;12.400;2023-01-29T07:23:56;13.68;;;7.95;;
20381;SDS011;10350;51.280;12.400;2023-01-29T07:26:22;12.48;;;7.63;;
20381;SDS011;10350;51.280;12.400;2023-01-29T07:28:48;16.38;;;7.88;;
20381;SDS011;10350;51.280;12.400;2023-01-29T07:31:14;16.77;;;7.43;;
20381;SDS011;10350;51.280;12.400;2023-01-29T07:33:41;14.90;;;7.43;;
20381;SDS011;10350;51.280;12.400;2023-01-29T07:36:09;12.43;;;7.32;;
20381;SDS011;10350;51.280;12.400;2023-01-29T07:38:35;13.88;;;7.90;;
20381;SDS011;10350;51.280;12.400;2023-01-29T07:41:01;15.50;;;7.43;;
20381;SDS011;10350;51.280;12.400;2023-01-29T07:43:27;15.18;;;8.10;;
20381;SDS011;10350;51.280;12.400;2023-01-29T07:45:54;12.63;;;7.55;;
20381;SDS011;10350;51.280;12.400;2023-01-29T07:48:20;13.18;;;8.02;;
20381;SDS011;10350;51.280;12.400;2023-01-29T07:50:52;15.07;;;8.52;;
20381;SDS011;10350;51.280;12.400;2023-01-29T07:53:18;15.02;;;8.55;;
20381;SDS011;10350;51.280;12.400;2023-01-29T07:55:44;15.77;;;7.85;;
20381;SDS011;10350;51.280;12.400;2023-01-29T07:58:10;14.93;;;9.13;;
20381;SDS011;10350;51.280;12.400;2023-01-29T08:00:36;13.85;;;8.63;;
20381;SDS011;10350;51.280;12.400;2023-01-29T08:03:03;13.63;;;7.95;;
20381;SDS011;10350;51.280;12.400;2023-01-29T08:05:29;13.60;;;8.52;;
20381;SDS011;10350;51.280;12.400;2023-01-29T08:07:55;15.13;;;8.85;;
20381;SDS011;10350;51.280;12.400;2023-01-29T08:10:21;14.95;;;8.73;;
20381;SDS011;10350;51.280;12.400;2023-01-29T08:12:47;12.30;;;8.18;;
20381;SDS011;10350;51.280;12.400;2023-01-29T08:15:12;14.95;;;8.57;;
20381;SDS011;10350;51.280;12.400;2023-01-29T08:17:38;15.80;;;8.65;;
20381;SDS011;10350;51.280;12.400;2023-01-29T08:20:05;19.08;;;8.80;;
20381;SDS011;10350;51.280;12.400;2023-01-29T08:22:31;15.20;;;8.82;;
20381;SDS011;10350;51.280;12.400;2023-01-29T08:24:57;13.32;;;8.40;;
20381;SDS011;10350;51.280;12.400;2023-01-29T08:27:23;18.10;;;9.50;;
20381;SDS011;10350;51.280;12.400;2023-01-29T08:29:49;18.08;;;9.55;;
20381;SDS011;10350;51.280;12.400;2023-01-29T08:32:15;14.40;;;7.90;;
20381;SDS011;10350;51.280;12.400;2023-01-29T08:34:41;18.85;;;9.27;;
20381;SDS011;10350;51.280;12.400;2023-01-29T08:37:06;15.23;;;8.93;;
20381;SDS011;10350;51.280;12.400;2023-01-29T08:39:32;18.17;;;9.45;;
20381;SDS011;10350;51.280;12.400;2023-01-29T08:41:58;15.70;;;8.95;;
20381;SDS011;10350;51.280;12.400;2023-01-29T08:44:24;16.90;;;8.60;;
20381;SDS011;10350;51.280;12.400;2023-01-29T08:46:50;14.18;;;8.40;;
20381;SDS011;10350;51.280;12.400;2023-01-29T08:49:16;14.32;;;8.90;;
20381;SDS011;10350;51.280;12.400;2023-01-29T08:51:42;15.45;;;9.05;;
20381;SDS011;10350;51.280;12.400;2023-01-29T08:54:08;18.00;;;9.32;;
20381;SDS011;10350;51.280;12.400;2023-01-29T08:56:34;15.82;;;9.02;;
20381;SDS011;10350;51.280;12.400;2023-01-29T08:59:00;14.65;;;8.02;;
20381;SDS011;10350;51.280;12.400;2023-01-29T09:01:26;15.63;;;8.68;;
20381;SDS011;10350;51.280;12.400;2023-01-29T09:03:51;15.90;;;8.82;;
20381;SDS011;10350;51.280;12.400;2023-01-29T09:06:17;16.48;;;8.43;;
20381;SDS011;10350;51.280;12.400;2023-01-29T09:08:43;16.65;;;9.10;;
20381;SDS011;10350;51.280;12.400;2023-01-29T09:11:09;13.00;;;8.60;;
20381;SDS011;10350;51.280;12.400;2023-01-29T09:13:35;12.95;;;8.27;;
20381;SDS011;10350;51.280;12.400;2023-01-29T09:16:02;14.68;;;8.60;;
20381;SDS011;10350;51.280;12.400;2023-01-29T09:18:28;15.15;;;8.90;;
20381;SDS011;10350;51.280;12.400;2023-01-29T09:20:55;15.52;;;9.35;;
20381;SDS011;10350;51.280;12.400;2023-01-29T09:23:21;14.07;;;8.68;;
20381;SDS011;10350;51.280;12.400;2023-01-29T09:25:47;22.92;;;9.55;;
20381;SDS011;10350;51.280;12.400;2023-01-29T09:28:14;19.83;;;9.60;;
20381;SDS011;10350;51.280;12.400;2023-01-29T09:30:41;14.73;;;9.00;;
20381;SDS011;10350;51.280;12.400;2023-01-29T09:33:07;16.42;;;8.93;;
20381;SDS011;10350;51.280;12.400;2023-01-29T09:35:34;17.50;;;9.57;;
20381;SDS011;10350;51.280;12.400;2023-01-29T09:38:00;17.25;;;9.75;;
20381;SDS011;10350;51.280;12.400;2023-01-29T09:43:10;16.88;;;9.27;;
20381;SDS011;10350;51.280;12.400;2023-01-29T09:45:44;14.60;;;8.63;;
20381;SDS011;10350;51.280;12.400;2023-01-29T09:48:14;17.58;;;9.60;;
20381;SDS011;10350;51.280;12.400;2023-01-29T09:50:41;17.55;;;9.65;;
20381;SDS011;10350;51.280;12.400;2023-01-29T09:53:17;19.02;;;9.63;;
20381;SDS011;10350;51.280;12.400;2023-01-29T09:55:55;17.60;;;10.18;;
20381;SDS011;10350;51.280;12.400;2023-01-29T09:58:30;19.50;;;9.60;;
20381;SDS011;10350;51.280;12.400;2023-01-29T10:01:18;17.27;;;9.35;;
20381;SDS011;10350;51.280;12.400;2023-01-29T10:03:54;17.58;;;9.57;;
20381;SDS011;10350;51.280;12.400;2023-01-29T10:06:42;19.17;;;9.45;;
20381;SDS011;10350;51.280;12.400;2023-01-29T10:11:52;16.60;;;9.07;;
20381;SDS011;10350;51.280;12.400;2023-01-29T10:16:57;17.38;;;9.82;;
20381;SDS011;10350;51.280;12.400;2023-01-29T10:26:59;17.77;;;9.40;;
20381;SDS011;10350;51.280;12.400;2023-01-29T10:29:25;20.77;;;8.90;;
20381;SDS011;10350;51.280;12.400;2023-01-29T10:31:54;21.42;;;9.20;;
20381;SDS011;10350;51.280;12.400;2023-01-29T10:34:29;13.32;;;7.45;;
20381;SDS011;10350;51.280;12.400;2023-01-29T10:36:58;15.15;;;9.05;;
20381;SDS011;10350;51.280;12.400;2023-01-29T10:39:24;16.55;;;9.38;;
20381;SDS011;10350;51.280;12.400;2023-01-29T10:47:29;19.23;;;11.02;;
20381;SDS011;10350;51.280;12.400;2023-01-29T10:50:09;16.92;;;9.18;;
20381;SDS011;10350;51.280;12.400;2023-01-29T10:52:49;16.38;;;9.32;;
20381;SDS011;10350;51.280;12.400;2023-01-29T10:57:47;14.52;;;9.27;;
20381;SDS011;10350;51.280;12.400;2023-01-29T11:00:24;16.45;;;9.55;;
20381;SDS011;10350;51.280;12.400;2023-01-29T11:02:51;14.90;;;8.63;;
20381;SDS011;10350;51.280;12.400;2023-01-29T11:05:37;18.98;;;10.35;;
20381;SDS011;10350;51.280;12.400;2023-01-29T11:08:10;14.98;;;9.15;;
20381;SDS011;10350;51.280;12.400;2023-01-29T11:10:40;18.42;;;9.70;;
20381;SDS011;10350;51.280;12.400;2023-01-29T11:13:08;18.98;;;8.93;;
20381;SDS011;10350;51.280;12.400;2023-01-29T11:15:36;12.63;;;7.18;;
20381;SDS011;10350;51.280;12.400;2023-01-29T11:20:34;16.52;;;9.00;;
20381;SDS011;10350;51.280;12.400;2023-01-29T11:23:00;15.27;;;9.60;;
20381;SDS011;10350;51.280;12.400;2023-01-29T11:25:26;14.70;;;9.40;;
20381;SDS011;10350;51.280;12.400;2023-01-29T11:27:57;15.87;;;8.97;;
20381;SDS011;10350;51.280;12.400;2023-01-29T11:30:38;17.98;;;9.43;;
20381;SDS011;10350;51.280;12.400;2023-01-29T11:35:31;18.63;;;9.55;;
20381;SDS011;10350;51.280;12.400;2023-01-29T11:38:17;16.55;;;9.00;;
20381;SDS011;10350;51.280;12.400;2023-01-29T11:40:43;17.35;;;9.20;;
20381;SDS011;10350;51.280;12.400;2023-01-29T11:43:10;18.52;;;9.85;;
20381;SDS011;10350;51.280;12.400;2023-01-29T11:45:37;17.90;;;9.43;;
20381;SDS011;10350;51.280;12.400;2023-01-29T11:48:04;15.10;;;8.77;;
20381;SDS011;10350;51.280;12.400;2023-01-29T11:50:31;16.35;;;9.00;;
20381;SDS011;10350;51.280;12.400;2023-01-29T11:52:58;17.75;;;9.52;;
20381;SDS011;10350;51.280;12.400;2023-01-29T11:55:25;12.75;;;8.60;;
20381;SDS011;10350;51.280;12.400;2023-01-29T11:57:53;15.90;;;9.15;;
20381;SDS011;10350;51.280;12.400;2023-01-29T12:00:23;12.30;;;8.70;;
20381;SDS011;10350;51.280;12.400;2023-01-29T12:02:53;14.30;;;8.52;;
20381;SDS011;10350;51.280;12.400;2023-01-29T12:05:21;14.55;;;9.27;;
20381;SDS011;10350;51.280;12.400;2023-01-29T12:07:48;16.02;;;9.38;;
20381;SDS011;10350;51.280;12.400;2023-01-29T12:13:23;17.45;;;8.95;;
20381;SDS011;10350;51.280;12.400;2023-01-29T12:15:51;14.50;;;8.88;;
20381;SDS011;10350;51.280;12.400;2023-01-29T12:18:31;15.10;;;8.98;;
20381;SDS011;10350;51.280;12.400;2023-01-29T12:20:59;14.15;;;9.35;;
20381;SDS011;10350;51.280;12.400;2023-01-29T12:23:30;14.52;;;7.97;;
20381;SDS011;10350;51.280;12.400;2023-01-29T12:25:59;14.05;;;8.57;;
20381;SDS011;10350;51.280;12.400;2023-01-29T12:36:35;14.80;;;8.45;;
20381;SDS011;10350;51.280;12.400;2023-01-29T12:39:02;17.35;;;9.48;;
20381;SDS011;10350;51.280;12.400;2023-01-29T12:41:33;15.27;;;9.05;;
20381;SDS011;10350;51.280;12.400;2023-01-29T12:44:02;13.98;;;9.35;;
20381;SDS011;10350;51.280;12.400;2023-01-29T12:46:37;13.48;;;8.80;;
20381;SDS011;10350;51.280;12.400;2023-01-29T12:49:07;13.10;;;8.80;;
20381;SDS011;10350;51.280;12.400;2023-01-29T12:51:38;14.38;;;9.07;;
20381;SDS011;10350;51.280;12.400;2023-01-29T12:54:06;15.77;;;8.23;;
20381;SDS011;10350;51.280;12.400;2023-01-29T12:56:34;13.90;;;8.05;;
20381;SDS011;10350;51.280;12.400;2023-01-29T12:59:03;14.18;;;8.50;;
20381;SDS011;10350;51.280;12.400;2023-01-29T13:01:35;15.35;;;8.95;;
20381;SDS011;10350;51.280;12.400;2023-01-29T13:04:03;16.60;;;9.30;;
20381;SDS011;10350;51.280;12.400;2023-01-29T13:06:35;13.18;;;8.25;;
20381;SDS011;10350;51.280;12.400;2023-01-29T13:09:06;10.98;;;7.68;;
20381;SDS011;10350;51.280;12.400;2023-01-29T13:11:34;17.70;;;8.43;;
20381;SDS011;10350;51.280;12.400;2023-01-29T13:14:05;12.35;;;7.65;;
20381;SDS011;10350;51.280;12.400;2023-01-29T13:16:32;13.68;;;7.75;;
20381;SDS011;10350;51.280;12.400;2023-01-29T13:21:36;11.50;;;7.82;;
20381;SDS011;10350;51.280;12.400;2023-01-29T13:26:55;15.48;;;8.77;;
20381;SDS011;10350;51.280;12.400;2023-01-29T13:29:25;12.88;;;8.30;;
20381;SDS011;10350;51.280;12.400;2023-01-29T13:31:53;11.95;;;8.13;;
20381;SDS011;10350;51.280;12.400;2023-01-29T13:36:49;13.32;;;8.77;;
20381;SDS011;10350;51.280;12.400;2023-01-29T13:39:29;15.88;;;8.45;;
20381;SDS011;10350;51.280;12.400;2023-01-29T13:41:56;13.48;;;7.93;;
20381;SDS011;10350;51.280;12.400;2023-01-29T13:44:27;13.05;;;8.43;;
20381;SDS011;10350;51.280;12.400;2023-01-29T13:47:07;16.55;;;9.18;;
20381;SDS011;10350;51.280;12.400;2023-01-29T13:49:34;11.63;;;7.82;;
20381;SDS011;10350;51.280;12.400;2023-01-29T13:52:15;12.05;;;7.15;;
20381;SDS011;10350;51.280;12.400;2023-01-29T13:54:48;12.32;;;8.23;;
20381;SDS011;10350;51.280;12.400;2023-01-29T13:57:32;12.90;;;7.65;;
20381;SDS011;10350;51.280;12.400;2023-01-29T13:59:58;14.52;;;8.30;;
20381;SDS011;10350;51.280;12.400;2023-01-29T14:02:25;16.10;;;8.45;;
20381;SDS011;10350;51.280;12.400;2023-01-29T14:04:51;11.40;;;8.00;;
20381;SDS011;10350;51.280;12.400;2023-01-29T14:07:38;14.27;;;7.68;;
20381;SDS011;10350;51.280;12.400;2023-01-29T14:10:15;12.07;;;7.55;;
20381;SDS011;10350;51.280;12.400;2023-01-29T14:12:41;14.45;;;7.85;;
20381;SDS011;10350;51.280;12.400;2023-01-29T14:15:21;10.68;;;6.63;;
20381;SDS011;10350;51.280;12.400;2023-01-29T14:17:54;14.88;;;7.75;;
20381;SDS011;10350;51.280;12.400;2023-01-29T14:20:22;12.82;;;7.35;;
20381;SDS011;10350;51.280;12.400;2023-01-29T14:22:53;15.50;;;7.32;;
20381;SDS011;10350;51.280;12.400;2023-01-29T14:25:21;15.25;;;8.02;;
20381;SDS011;10350;51.280;12.400;2023-01-29T14:27:51;11.05;;;7.45;;
20381;SDS011;10350;51.280;12.400;2023-01-29T14:30:17;11.93;;;7.70;;
20381;SDS011;10350;51.280;12.400;2023-01-29T14:32:47;15.43;;;7.57;;
20381;SDS011;10350;51.280;12.400;2023-01-29T14:35:17;11.48;;;7.30;;
20381;SDS011;10350;51.280;12.400;2023-01-29T14:37:44;11.38;;;7.65;;
20381;SDS011;10350;51.280;12.400;2023-01-29T14:45:23;11.82;;;7.25;;
20381;SDS011;10350;51.280;12.400;2023-01-29T14:53:09;16.48;;;7.97;;
20381;SDS011;10350;51.280;12.400;2023-01-29T14:55:42;14.77;;;8.90;;
20381;SDS011;10350;51.280;12.400;2023-01-29T14:58:18;18.90;;;8.68;;
20381;SDS011;10350;51.280;12.400;2023-01-29T15:00:48;15.18;;;7.50;;
20381;SDS011;10350;51.280;12.400;2023-01-29T15:06:34;14.45;;;7.53;;
20381;SDS011;10350;51.280;12.400;2023-01-29T15:09:28;10.35;;;6.47;;
20381;SDS011;10350;51.280;12.400;2023-01-29T15:11:56;11.77;;;7.45;;
20381;SDS011;10350;51.280;12.400;2023-01-29T15:14:28;11.93;;;7.28;;
20381;SDS011;10350;51.280;12.400;2023-01-29T15:19:27;12.55;;;7.13;;
20381;SDS011;10350;51.280;12.400;2023-01-29T15:22:04;10.50;;;6.85;;
20381;SDS011;10350;51.280;12.400;2023-01-29T15:24:30;10.93;;;6.85;;
20381;SDS011;10350;51.280;12.400;2023-01-29T15:26:56;13.30;;;6.72;;
20381;SDS011;10350;51.280;12.400;2023-01-29T15:29:23;12.68;;;7.13;;
20381;SDS011;10350;51.280;12.400;2023-01-29T15:31:50;12.20;;;7.40;;
20381;SDS011;10350;51.280;12.400;2023-01-29T15:34:16;11.75;;;7.40;;
20381;SDS011;10350;51.280;12.400;2023-01-29T15:36:42;12.15;;;7.25;;
20381;SDS011;10350;51.280;12.400;2023-01-29T15:41:33;10.07;;;6.50;;
20381;SDS011;10350;51.280;12.400;2023-01-29T15:43:59;12.55;;;7.00;;
20381;SDS011;10350;51.280;12.400;2023-01-29T15:46:29;12.90;;;7.15;;
20381;SDS011;10350;51.280;12.400;2023-01-29T15:48:58;14.00;;;7.65;;
20381;SDS011;10350;51.280;12.400;2023-01-29T15:51:25;13.37;;;7.67;;
20381;SDS011;10350;51.280;12.400;2023-01-29T15:53:53;16.30;;;7.72;;
20381;SDS011;10350;51.280;12.400;2023-01-29T15:56:23;12.15;;;7.72;;
20381;SDS011;10350;51.280;12.400;2023-01-29T15:58:52;12.73;;;7.50;;
20381;SDS011;10350;51.280;12.400;2023-01-29T16:01:18;13.35;;;8.07;;
20381;SDS011;10350;51.280;12.400;2023-01-29T16:03:44;11.65;;;7.15;;
20381;SDS011;10350;51.280;12.400;2023-01-29T16:06:13;12.50;;;7.70;;
20381;SDS011;10350;51.280;12.400;2023-01-29T16:08:39;14.43;;;7.78;;
20381;SDS011;10350;51.280;12.400;2023-01-29T16:11:06;12.73;;;7.65;;
20381;SDS011;10350;51.280;12.400;2023-01-29T16:13:34;13.48;;;7.90;;
20381;SDS011;10350;51.280;12.400;2023-01-29T16:16:02;11.48;;;7.63;;
20381;SDS011;10350;51.280;12.400;2023-01-29T16:18:32;13.02;;;7.72;;